Time;durP1;ratioP1;P1;durP2;ratioP2;P2;SDS_P1;SDS_P2;PMS_P1;PMS_P2;Temp;Humidity;BMP_temperature;BMP_pressure;BME280_temperature;BME280_humidity;BME280_pressure;Samples;Min_cycle;Max_cycle;Signal;HPM_P1;HPM_P2
2023/11/19 00:02:22;;;;;;;4.75;2.08;;;;;;;;;;5048658;28;20029;-66
2023/11/19 00:04:48;;;;;;;3.30;2.33;;;;;;;;;;5033721;28;20095;-66
2023/11/19 00:07:14;;;;;;;4.88;2.53;;;;;;;;;;5050331;28;20021;-66
2023/11/19 00:09:40;;;;;;;3.30;2.50;;;;;;;;;;5051661;28;20107;-66
2023/11/19 00:12:07;;;;;;;4.35;2.60;;;;;;;;;;5050262;28;20017;-66
2023/11/19 00:14:35;;;;;;;2.95;2.00;;;;;;;;;;5051622;28;20044;-67
2023/11/19 00:17:01;;;;;;;3.13;1.55;;;;;;;;;;5049552;28;20049;-67
2023/11/19 00:19:27;;;;;;;3.00;1.65;;;;;;;;;;5051265;28;20035;-67
2023/11/19 00:21:53;;;;;;;6.30;1.95;;;;;;;;;;5051040;28;20433;-67
2023/11/19 00:24:20;;;;;;;5.28;1.77;;;;;;;;;;5050454;28;20854;-68
2023/11/19 00:26:46;;;;;;;1.88;1.73;;;;;;;;;;5062086;28;20024;-67
2023/11/19 00:29:13;;;;;;;3.70;2.15;;;;;;;;;;5070698;28;20024;-67
2023/11/19 00:31:39;;;;;;;3.85;1.95;;;;;;;;;;5049055;28;20021;-67
2023/11/19 00:34:06;;;;;;;2.10;1.75;;;;;;;;;;5048223;28;20470;-67
2023/11/19 00:36:32;;;;;;;4.43;2.10;;;;;;;;;;5050835;28;20348;-67
2023/11/19 00:38:58;;;;;;;3.83;1.77;;;;;;;;;;5051144;28;20032;-67
2023/11/19 00:41:25;;;;;;;2.35;2.13;;;;;;;;;;5052598;28;20120;-67
2023/11/19 00:43:51;;;;;;;3.05;1.90;;;;;;;;;;5055012;28;20458;-67
2023/11/19 00:46:17;;;;;;;2.60;1.80;;;;;;;;;;5053783;28;20028;-67
2023/11/19 00:48:43;;;;;;;3.45;1.63;;;;;;;;;;5055466;28;20017;-67
2023/11/19 00:51:09;;;;;;;3.70;2.03;;;;;;;;;;5053462;28;20033;-68
2023/11/19 00:53:35;;;;;;;2.97;1.65;;;;;;;;;;5036882;28;20033;-68
2023/11/19 00:56:01;;;;;;;2.15;1.55;;;;;;;;;;5033764;28;20030;-68
2023/11/19 00:58:27;;;;;;;2.17;1.40;;;;;;;;;;5034979;28;20300;-67
2023/11/19 01:00:53;;;;;;;3.45;2.17;;;;;;;;;;5044515;28;20099;-68
2023/11/19 01:03:19;;;;;;;4.78;1.88;;;;;;;;;;5054157;28;20096;-67
2023/11/19 01:05:46;;;;;;;2.22;1.60;;;;;;;;;;5054502;28;20033;-67
2023/11/19 01:08:12;;;;;;;1.83;1.50;;;;;;;;;;5049334;28;20049;-68
2023/11/19 01:10:38;;;;;;;2.63;1.38;;;;;;;;;;5034153;28;20032;-67
2023/11/19 01:13:05;;;;;;;2.83;1.20;;;;;;;;;;5034096;28;20025;-68
2023/11/19 01:15:31;;;;;;;1.63;1.52;;;;;;;;;;5034366;28;20017;-68
2023/11/19 01:17:57;;;;;;;2.78;1.55;;;;;;;;;;5033397;28;20477;-67
2023/11/19 01:20:24;;;;;;;3.22;2.13;;;;;;;;;;5036050;28;20132;-67
2023/11/19 01:22:50;;;;;;;3.45;2.20;;;;;;;;;;5048689;28;20018;-67
2023/11/19 01:25:16;;;;;;;6.05;2.28;;;;;;;;;;5045116;28;20022;-68
2023/11/19 01:27:42;;;;;;;3.00;2.70;;;;;;;;;;5046544;28;20013;-67
2023/11/19 01:30:12;;;;;;;4.22;2.90;;;;;;;;;;5047611;28;20079;-68
2023/11/19 01:32:38;;;;;;;4.22;2.70;;;;;;;;;;5049244;28;20017;-67
2023/11/19 01:35:04;;;;;;;4.93;3.33;;;;;;;;;;5050666;28;20032;-68
2023/11/19 01:37:32;;;;;;;3.78;2.72;;;;;;;;;;5045723;28;20409;-67
2023/11/19 01:39:58;;;;;;;5.20;3.17;;;;;;;;;;5045978;28;20029;-68
2023/11/19 01:42:27;;;;;;;6.68;3.10;;;;;;;;;;5046976;28;20028;-67
2023/11/19 01:44:58;;;;;;;6.43;3.35;;;;;;;;;;5047625;28;20602;-67
2023/11/19 01:47:24;;;;;;;3.63;2.90;;;;;;;;;;5048304;28;20078;-67
2023/11/19 01:49:50;;;;;;;3.70;2.67;;;;;;;;;;5050357;28;20025;-68
2023/11/19 01:52:16;;;;;;;3.55;3.25;;;;;;;;;;5046207;28;20037;-67
2023/11/19 01:54:42;;;;;;;3.72;3.35;;;;;;;;;;5047330;28;20474;-67
2023/11/19 01:57:09;;;;;;;5.72;3.25;;;;;;;;;;5043801;28;20496;-67
2023/11/19 01:59:35;;;;;;;4.65;3.28;;;;;;;;;;5050264;28;20040;-66
2023/11/19 02:02:01;;;;;;;4.90;3.47;;;;;;;;;;5046315;28;20052;-67
2023/11/19 02:04:28;;;;;;;4.50;3.40;;;;;;;;;;5049078;28;20030;-67
2023/11/19 02:06:55;;;;;;;4.72;3.65;;;;;;;;;;5048215;28;20094;-67
2023/11/19 02:09:21;;;;;;;7.05;3.63;;;;;;;;;;5046475;28;20029;-66
2023/11/19 02:11:51;;;;;;;3.80;3.38;;;;;;;;;;5048174;28;20063;-67
2023/11/19 02:14:17;;;;;;;4.63;3.50;;;;;;;;;;5045433;28;20025;-67
2023/11/19 02:16:43;;;;;;;5.22;3.40;;;;;;;;;;5047197;28;20045;-67
2023/11/19 02:19:10;;;;;;;4.95;3.55;;;;;;;;;;5046486;28;20025;-67
2023/11/19 02:21:36;;;;;;;4.07;2.80;;;;;;;;;;5047939;28;20040;-67
2023/11/19 02:24:07;;;;;;;5.32;3.50;;;;;;;;;;5046318;28;20032;-67
2023/11/19 02:26:33;;;;;;;;;;;;;;;;;;5045634;28;20490;-67
2023/11/19 02:28:59;;;;;;;4.05;3.03;;;;;;;;;;5052995;28;19955;-67
2023/11/19 02:31:27;;;;;;;5.70;3.50;;;;;;;;;;5052326;28;20105;-67
2023/11/19 02:33:53;;;;;;;4.40;3.53;;;;;;;;;;5037762;28;20493;-67
2023/11/19 02:36:19;;;;;;;5.28;3.45;;;;;;;;;;5050915;28;20025;-67
2023/11/19 02:38:45;;;;;;;4.88;3.30;;;;;;;;;;5051887;28;20410;-67
2023/11/19 02:41:11;;;;;;;4.22;2.92;;;;;;;;;;5051645;28;20039;-67
2023/11/19 02:43:38;;;;;;;3.63;3.17;;;;;;;;;;5052161;28;20485;-67
2023/11/19 02:46:06;;;;;;;2.85;2.58;;;;;;;;;;5051433;28;20027;-67
2023/11/19 02:48:33;;;;;;;3.33;3.03;;;;;;;;;;5052326;28;20024;-67
2023/11/19 02:50:59;;;;;;;4.18;3.22;;;;;;;;;;5051945;28;20025;-68
2023/11/19 02:53:27;;;;;;;4.75;3.50;;;;;;;;;;5052355;28;20104;-67
2023/11/19 02:55:53;;;;;;;3.20;2.90;;;;;;;;;;5043530;28;20494;-67
2023/11/19 02:58:19;;;;;;;6.35;3.97;;;;;;;;;;5051645;28;20643;-67
2023/11/19 03:00:57;;;;;;;7.15;4.13;;;;;;;;;;5051451;28;20040;-67
2023/11/19 03:03:28;;;;;;;4.63;3.28;;;;;;;;;;5052115;28;20023;-67
2023/11/19 03:05:55;;;;;;;7.82;4.40;;;;;;;;;;5048564;28;20025;-67
2023/11/19 03:08:22;;;;;;;3.85;2.88;;;;;;;;;;5044795;28;20033;-67
2023/11/19 03:10:48;;;;;;;3.53;2.80;;;;;;;;;;5052014;28;20021;-67
2023/11/19 03:13:14;;;;;;;3.13;2.60;;;;;;;;;;5051378;28;20032;-67
2023/11/19 03:15:41;;;;;;;6.05;3.45;;;;;;;;;;5051937;28;20020;-67
2023/11/19 03:18:07;;;;;;;4.07;3.47;;;;;;;;;;5050846;28;20053;-67
2023/11/19 03:20:33;;;;;;;3.03;2.38;;;;;;;;;;5051710;28;20171;-67
2023/11/19 03:23:00;;;;;;;3.92;3.00;;;;;;;;;;5043213;28;20021;-67
2023/11/19 03:25:36;;;;;;;4.70;3.05;;;;;;;;;;5051372;28;20470;-67
2023/11/19 03:28:03;;;;;;;3.40;3.00;;;;;;;;;;5051201;28;20032;-67
2023/11/19 03:30:29;;;;;;;3.10;2.55;;;;;;;;;;5051755;28;20365;-67
2023/11/19 03:32:55;;;;;;;3.72;2.80;;;;;;;;;;5051681;28;20021;-67
2023/11/19 03:35:21;;;;;;;6.45;3.47;;;;;;;;;;5050456;28;20077;-67
2023/11/19 03:37:47;;;;;;;5.72;3.33;;;;;;;;;;5050960;28;20028;-67
2023/11/19 03:40:14;;;;;;;4.47;3.47;;;;;;;;;;5045100;28;20486;-67
2023/11/19 03:42:40;;;;;;;5.18;3.97;;;;;;;;;;5058606;28;20100;-67
2023/11/19 03:45:08;;;;;;;4.25;3.55;;;;;;;;;;5070520;28;20072;-67
2023/11/19 03:47:35;;;;;;;9.10;3.83;;;;;;;;;;5054263;28;20033;-67
2023/11/19 03:50:02;;;;;;;5.70;3.95;;;;;;;;;;5050942;28;20405;-68
2023/11/19 03:52:28;;;;;;;4.38;3.28;;;;;;;;;;5051335;28;20484;-67
2023/11/19 03:54:58;;;;;;;5.97;3.72;;;;;;;;;;5051913;28;20025;-66
2023/11/19 03:57:24;;;;;;;3.92;3.53;;;;;;;;;;5044514;28;20030;-67
2023/11/19 03:59:50;;;;;;;6.43;3.08;;;;;;;;;;5071194;28;20389;-67
2023/11/19 04:02:17;;;;;;;4.30;3.33;;;;;;;;;;5069881;28;20520;-67
2023/11/19 04:04:42;;;;;;;5.68;3.88;;;;;;;;;;5071540;28;20025;-67
2023/11/19 04:07:09;;;;;;;4.60;3.38;;;;;;;;;;5070378;28;20056;-67
2023/11/19 04:09:37;;;;;;;3.65;1.88;;;;;;;;;;5053826;28;20025;-67
2023/11/19 04:12:03;;;;;;;1.25;1.08;;;;;;;;;;5048430;28;20052;-67
2023/11/19 04:14:29;;;;;;;1.42;0.40;;;;;;;;;;5042879;28;20029;-67
2023/11/19 04:16:55;;;;;;;1.23;0.50;;;;;;;;;;5053880;28;20041;-66
2023/11/19 04:19:21;;;;;;;0.32;0.20;;;;;;;;;;5054486;28;20025;-67
2023/11/19 04:21:48;;;;;;;0.00;0.00;;;;;;;;;;5054933;28;20032;-66
2023/11/19 04:24:14;;;;;;;1.50;0.20;;;;;;;;;;5054513;28;20067;-67
2023/11/19 04:26:41;;;;;;;0.45;0.35;;;;;;;;;;5055148;28;20025;-66
2023/11/19 04:29:08;;;;;;;0.13;0.10;;;;;;;;;;5054582;28;20032;-67
2023/11/19 04:31:34;;;;;;;0.10;0.10;;;;;;;;;;5044960;28;20036;-67
2023/11/19 04:34:00;;;;;;;0.22;0.10;;;;;;;;;;5054323;28;20033;-67
2023/11/19 04:36:27;;;;;;;0.68;0.10;;;;;;;;;;5054275;28;20120;-67
2023/11/19 04:38:53;;;;;;;1.38;0.10;;;;;;;;;;5054593;28;20021;-67
2023/11/19 04:41:19;;;;;;;1.55;0.25;;;;;;;;;;5053583;28;20032;-67
2023/11/19 04:43:45;;;;;;;0.38;0.17;;;;;;;;;;5055110;28;20032;-66
2023/11/19 04:46:11;;;;;;;0.10;0.10;;;;;;;;;;5053770;28;20027;-67
2023/11/19 04:48:37;;;;;;;2.40;0.08;;;;;;;;;;5047652;28;20485;-67
2023/11/19 04:51:05;;;;;;;0.30;0.15;;;;;;;;;;5050933;28;20036;-67
2023/11/19 04:53:31;;;;;;;0.20;0.10;;;;;;;;;;5054746;28;20025;-67
2023/11/19 04:55:57;;;;;;;0.22;0.20;;;;;;;;;;5054372;28;20090;-67
2023/11/19 04:58:23;;;;;;;0.22;0.10;;;;;;;;;;5054220;28;20029;-67
2023/11/19 05:00:49;;;;;;;0.10;0.10;;;;;;;;;;5053873;28;20079;-67
2023/11/19 05:03:15;;;;;;;0.00;0.00;;;;;;;;;;5053302;28;20021;-67
2023/11/19 05:05:41;;;;;;;0.10;0.10;;;;;;;;;;5037287;28;20080;-68
2023/11/19 05:08:07;;;;;;;0.10;0.10;;;;;;;;;;5034069;28;20021;-66
2023/11/19 05:10:33;;;;;;;0.63;0.10;;;;;;;;;;5033980;28;20127;-65
2023/11/19 05:12:58;;;;;;;2.22;0.20;;;;;;;;;;5034300;28;20033;-65
2023/11/19 05:15:24;;;;;;;0.10;0.10;;;;;;;;;;5033852;28;20383;-65
2023/11/19 05:17:50;;;;;;;0.03;0.03;;;;;;;;;;5034221;28;20056;-65
2023/11/19 05:20:16;;;;;;;0.17;0.10;;;;;;;;;;5042021;28;20486;-65
2023/11/19 05:22:43;;;;;;;0.65;0.10;;;;;;;;;;5046432;28;20394;-65
2023/11/19 05:25:10;;;;;;;0.10;0.10;;;;;;;;;;5052717;28;20134;-65
2023/11/19 05:27:36;;;;;;;0.10;0.10;;;;;;;;;;5054087;28;20025;-65
2023/11/19 05:30:03;;;;;;;0.32;0.10;;;;;;;;;;5034986;28;20031;-65
2023/11/19 05:32:29;;;;;;;0.13;0.10;;;;;;;;;;5054275;28;20470;-65
2023/11/19 05:34:55;;;;;;;0.35;0.20;;;;;;;;;;5053592;28;20052;-65
2023/11/19 05:37:21;;;;;;;0.32;0.30;;;;;;;;;;5053005;28;20029;-65
2023/11/19 05:39:47;;;;;;;0.30;0.20;;;;;;;;;;5043182;28;20041;-65
2023/11/19 05:42:13;;;;;;;2.08;0.20;;;;;;;;;;5052765;28;20071;-65
2023/11/19 05:44:39;;;;;;;0.10;0.10;;;;;;;;;;5053808;28;20056;-65
2023/11/19 05:47:05;;;;;;;0.13;0.13;;;;;;;;;;5052701;28;20403;-65
2023/11/19 05:49:31;;;;;;;0.85;0.10;;;;;;;;;;5051650;28;20037;-65
2023/11/19 05:51:57;;;;;;;0.40;0.20;;;;;;;;;;5053202;28;20067;-65
2023/11/19 05:54:23;;;;;;;0.10;0.10;;;;;;;;;;5053394;28;20071;-65
2023/11/19 05:56:49;;;;;;;0.60;0.20;;;;;;;;;;5046651;28;20421;-65
2023/11/19 05:59:17;;;;;;;0.32;0.20;;;;;;;;;;5050157;28;20025;-65
2023/11/19 06:01:43;;;;;;;0.45;0.40;;;;;;;;;;5046248;28;20374;-65
2023/11/19 06:04:10;;;;;;;1.42;0.20;;;;;;;;;;5052905;28;20096;-65
2023/11/19 06:06:36;;;;;;;0.05;0.05;;;;;;;;;;5053060;28;20123;-65
2023/11/19 06:09:05;;;;;;;0.35;0.22;;;;;;;;;;5052359;28;20021;-66
2023/11/19 06:11:31;;;;;;;0.20;0.17;;;;;;;;;;5053085;28;20029;-65
2023/11/19 06:13:57;;;;;;;0.52;0.15;;;;;;;;;;5044387;28;20029;-66
2023/11/19 06:16:23;;;;;;;1.85;0.20;;;;;;;;;;5044308;28;20056;-65
2023/11/19 06:18:49;;;;;;;0.60;0.22;;;;;;;;;;5051021;28;20489;-65
2023/11/19 06:21:16;;;;;;;0.20;0.20;;;;;;;;;;5049168;28;20033;-66
2023/11/19 06:23:42;;;;;;;0.30;0.20;;;;;;;;;;5051955;28;20025;-65
2023/11/19 06:26:08;;;;;;;0.32;0.22;;;;;;;;;;5048511;28;20458;-65
2023/11/19 06:28:34;;;;;;;0.17;0.10;;;;;;;;;;5051676;28;20124;-64
2023/11/19 06:31:00;;;;;;;1.05;0.20;;;;;;;;;;5040053;28;20108;-66
2023/11/19 06:33:27;;;;;;;0.57;0.20;;;;;;;;;;5050266;28;20048;-64
2023/11/19 06:35:54;;;;;;;2.13;0.20;;;;;;;;;;5037155;28;20104;-65
2023/11/19 06:38:20;;;;;;;0.90;0.20;;;;;;;;;;5044864;28;20159;-66
2023/11/19 06:40:46;;;;;;;0.57;0.20;;;;;;;;;;5039711;28;20057;-66
2023/11/19 06:43:12;;;;;;;1.23;0.30;;;;;;;;;;5031147;28;20057;-66
2023/11/19 06:45:38;;;;;;;0.70;0.20;;;;;;;;;;5029400;28;20550;-66
2023/11/19 06:48:05;;;;;;;0.20;0.20;;;;;;;;;;5037665;28;20024;-65
2023/11/19 06:50:31;;;;;;;0.75;0.20;;;;;;;;;;5051995;28;20036;-65
2023/11/19 06:52:57;;;;;;;0.20;0.20;;;;;;;;;;5071188;28;20116;-66
2023/11/19 06:55:23;;;;;;;1.55;0.30;;;;;;;;;;5054241;28;20100;-66
2023/11/19 06:57:49;;;;;;;1.83;0.30;;;;;;;;;;5033173;28;20040;-67
2023/11/19 07:00:15;;;;;;;0.30;0.20;;;;;;;;;;5046461;28;20455;-66
2023/11/19 07:02:41;;;;;;;2.40;0.50;;;;;;;;;;5031487;28;20029;-65
2023/11/19 07:05:08;;;;;;;0.30;0.30;;;;;;;;;;5030607;28;20025;-65
2023/11/19 07:07:35;;;;;;;0.55;0.20;;;;;;;;;;5036045;28;20037;-65
2023/11/19 07:10:02;;;;;;;0.85;0.28;;;;;;;;;;5046369;28;20061;-66
2023/11/19 07:12:28;;;;;;;0.30;0.30;;;;;;;;;;5051201;28;20074;-65
2023/11/19 07:14:55;;;;;;;0.20;0.20;;;;;;;;;;5049030;28;20039;-65
2023/11/19 07:17:21;;;;;;;0.93;0.28;;;;;;;;;;5049077;28;20049;-66
2023/11/19 07:19:47;;;;;;;1.67;0.30;;;;;;;;;;5050054;28;20044;-64
2023/11/19 07:22:13;;;;;;;0.43;0.20;;;;;;;;;;5041030;28;20029;-65
2023/11/19 07:24:41;;;;;;;0.40;0.30;;;;;;;;;;5048936;28;20588;-65
2023/11/19 07:27:08;;;;;;;0.47;0.20;;;;;;;;;;5049451;28;20029;-66
2023/11/19 07:29:34;;;;;;;0.30;0.30;;;;;;;;;;5049139;28;20028;-66
2023/11/19 07:32:01;;;;;;;0.85;0.75;;;;;;;;;;5049446;28;20024;-67
2023/11/19 07:34:29;;;;;;;3.60;0.50;;;;;;;;;;5050068;28;20025;-65
2023/11/19 07:36:59;;;;;;;1.83;0.25;;;;;;;;;;5048559;28;20029;-66
2023/11/19 07:39:25;;;;;;;;;;;;;;;;;;5043555;28;20025;-66
2023/11/19 07:41:51;;;;;;;0.65;0.20;;;;;;;;;;5051491;28;19916;-65
2023/11/19 07:44:17;;;;;;;0.45;0.28;;;;;;;;;;5042003;28;20516;-67
2023/11/19 07:46:44;;;;;;;0.30;0.30;;;;;;;;;;5030260;28;20026;-69
2023/11/19 07:49:10;;;;;;;0.60;0.50;;;;;;;;;;5031931;28;20040;-64
2023/11/19 07:51:36;;;;;;;0.70;0.30;;;;;;;;;;5065378;28;20025;-63
2023/11/19 07:54:02;;;;;;;1.42;0.40;;;;;;;;;;5068349;28;20486;-65
2023/11/19 07:56:28;;;;;;;0.40;0.38;;;;;;;;;;5068568;28;20099;-66
2023/11/19 07:58:54;;;;;;;2.80;0.40;;;;;;;;;;5070422;28;20420;-66
2023/11/19 08:01:20;;;;;;;0.30;0.30;;;;;;;;;;5069133;28;20025;-64
2023/11/19 08:03:46;;;;;;;1.55;0.20;;;;;;;;;;5065675;28;20028;-64
2023/11/19 08:06:12;;;;;;;0.60;0.40;;;;;;;;;;5065652;28;20013;-65
2023/11/19 08:08:38;;;;;;;0.30;0.30;;;;;;;;;;5071024;28;20024;-65
2023/11/19 08:11:05;;;;;;;1.23;0.28;;;;;;;;;;5069182;28;20028;-67
2023/11/19 08:13:31;;;;;;;0.80;0.20;;;;;;;;;;5067326;28;20385;-66
2023/11/19 08:15:58;;;;;;;0.38;0.20;;;;;;;;;;5066956;28;20028;-68
2023/11/19 08:18:24;;;;;;;1.23;0.13;;;;;;;;;;5068578;28;20048;-67
2023/11/19 08:20:53;;;;;;;0.43;0.22;;;;;;;;;;5069481;28;20036;-68
2023/11/19 08:23:19;;;;;;;0.20;0.20;;;;;;;;;;5057998;28;20096;-69
2023/11/19 08:25:45;;;;;;;0.50;0.20;;;;;;;;;;5050880;28;20029;-66
2023/11/19 08:28:11;;;;;;;0.20;0.20;;;;;;;;;;5050457;28;20031;-68
2023/11/19 08:30:37;;;;;;;1.42;0.40;;;;;;;;;;5048958;28;20021;-68
2023/11/19 08:33:05;;;;;;;0.60;0.40;;;;;;;;;;5061300;28;20491;-65
2023/11/19 08:35:31;;;;;;;0.80;0.32;;;;;;;;;;5065494;28;20029;-64
2023/11/19 08:37:58;;;;;;;1.00;0.20;;;;;;;;;;5069595;28;20465;-65
2023/11/19 08:40:25;;;;;;;0.50;0.22;;;;;;;;;;5067705;28;20028;-67
2023/11/19 08:42:51;;;;;;;0.22;0.20;;;;;;;;;;5047728;28;20017;-68
2023/11/19 08:45:17;;;;;;;0.90;0.28;;;;;;;;;;5049565;28;20039;-68
2023/11/19 08:47:45;;;;;;;1.13;0.32;;;;;;;;;;5050845;28;20021;-65
2023/11/19 08:50:11;;;;;;;1.05;0.73;;;;;;;;;;5049361;28;20420;-68
2023/11/19 08:52:37;;;;;;;0.55;0.28;;;;;;;;;;5050720;28;20029;-65
2023/11/19 08:55:05;;;;;;;0.40;0.20;;;;;;;;;;5049258;28;20346;-66
2023/11/19 08:57:31;;;;;;;0.25;0.20;;;;;;;;;;5050883;28;20025;-66
2023/11/19 08:59:57;;;;;;;2.55;0.40;;;;;;;;;;5050025;28;20059;-66
2023/11/19 09:02:23;;;;;;;0.35;0.30;;;;;;;;;;5032794;28;20029;-70
2023/11/19 09:04:49;;;;;;;0.57;0.30;;;;;;;;;;5041835;28;20076;-65
2023/11/19 09:07:15;;;;;;;1.35;0.28;;;;;;;;;;5053220;28;20464;-71
2023/11/19 09:09:40;;;;;;;0.98;0.30;;;;;;;;;;5054170;28;20021;-69
2023/11/19 09:12:07;;;;;;;1.58;0.40;;;;;;;;;;5053012;28;20470;-65
2023/11/19 09:14:33;;;;;;;1.40;0.43;;;;;;;;;;5053601;28;20022;-69
2023/11/19 09:16:59;;;;;;;0.40;0.32;;;;;;;;;;5035234;28;20056;-71
2023/11/19 09:19:29;;;;;;;2.97;0.40;;;;;;;;;;5053855;28;20029;-70
2023/11/19 09:21:54;;;;;;;0.93;0.30;;;14.00;99.90;;;;;;5042853;28;20390;-65
2023/11/19 09:24:20;;;;;;;1.50;0.60;;;14.10;99.90;;;;;;5051996;28;20033;-64
2023/11/19 09:26:46;;;;;;;0.68;0.28;;;14.20;99.90;;;;;;5053274;28;20125;-64
2023/11/19 09:29:11;;;;;;;1.27;0.45;;;14.20;99.90;;;;;;5053026;28;20025;-65
2023/11/19 09:31:40;;;;;;;2.83;0.60;;;14.30;99.90;;;;;;5031776;28;20116;-64
2023/11/19 09:34:06;;;;;;;2.70;0.68;;;14.30;99.90;;;;;;5033607;28;20026;-65
2023/11/19 09:36:31;;;;;;;0.98;0.40;;;14.40;99.90;;;;;;5053375;28;20108;-65
2023/11/19 09:38:57;;;;;;;2.30;0.47;;;14.40;99.90;;;;;;5037744;28;20052;-67
2023/11/19 09:41:23;;;;;;;0.40;0.40;;;14.50;99.90;;;;;;5032774;28;20128;-65
2023/11/19 09:43:50;;;;;;;0.73;0.40;;;14.60;99.90;;;;;;5033349;28;20033;-65
2023/11/19 09:46:16;;;;;;;0.80;0.30;;;14.70;99.90;;;;;;5032703;28;20653;-65
2023/11/19 09:48:43;;;;;;;1.30;0.40;;;14.70;99.90;;;;;;5015748;28;20422;-64
2023/11/19 09:51:10;;;;;;;0.98;0.40;;;14.70;99.90;;;;;;5032574;28;20029;-65
2023/11/19 09:53:37;;;;;;;1.05;0.40;;;14.70;99.90;;;;;;5033826;28;20436;-65
2023/11/19 09:56:04;;;;;;;3.03;0.55;;;14.70;99.90;;;;;;5032152;28;20053;-65
2023/11/19 09:58:31;;;;;;;1.80;0.50;;;14.80;99.90;;;;;;5052555;28;20367;-64
2023/11/19 10:01:00;;;;;;;0.75;0.30;;;14.90;99.90;;;;;;5038670;28;20120;-65
2023/11/19 10:03:28;;;;;;;0.95;0.50;;;14.90;99.90;;;;;;5025078;28;20116;-63
2023/11/19 10:05:57;;;;;;;0.50;0.40;;;14.90;99.90;;;;;;5032683;28;20030;-64
2023/11/19 10:08:23;;;;;;;0.82;0.38;;;15.00;99.90;;;;;;5032794;28;20108;-67
2023/11/19 10:10:49;;;;;;;1.27;0.40;;;15.20;99.90;;;;;;5032681;28;20542;-66
2023/11/19 10:13:15;;;;;;;0.68;0.30;;;;;;;;;;5032124;28;20063;-66
2023/11/19 10:15:41;;;;;;;1.73;0.77;;;;;;;;;;5051466;28;20486;-65
2023/11/19 10:18:08;;;;;;;0.88;0.30;;;;;;;;;;5051020;28;20052;-65
2023/11/19 10:20:37;;;;;;;0.90;0.60;;;;;;;;;;5052381;28;20489;-69
2023/11/19 10:23:03;;;;;;;3.00;0.70;;;15.70;99.90;;;;;;5051678;28;20091;-68
2023/11/19 10:25:29;;;;;;;1.30;0.65;;;15.70;99.90;;;;;;5052571;28;20029;-65
2023/11/19 10:27:56;;;;;;;2.42;0.60;;;15.80;99.90;;;;;;5066749;28;20055;-65
2023/11/19 10:30:29;;;;;;;1.02;0.52;;;15.90;99.90;;;;;;5031700;28;20152;-65
2023/11/19 10:33:06;;;;;;;1.38;0.80;;;15.80;99.90;;;;;;5043222;28;20029;-65
2023/11/19 10:35:36;;;;;;;2.40;0.93;;;15.80;99.90;;;;;;5049124;28;20040;-65
2023/11/19 10:38:17;;;;;;;1.05;0.95;;;15.70;99.90;;;;;;5032295;28;20061;-65
2023/11/19 10:40:42;;;;;;;0.70;0.50;;;15.70;99.90;;;;;;5048191;28;20037;-65
2023/11/19 10:43:08;;;;;;;1.10;0.60;;;15.70;99.90;;;;;;5050219;28;20032;-65
2023/11/19 10:45:38;;;;;;;2.10;1.33;;;15.70;99.90;;;;;;5040505;28;20026;-65
2023/11/19 10:48:07;;;;;;;1.80;0.95;;;15.80;99.90;;;;;;5030792;28;20467;-65
2023/11/19 10:50:37;;;;;;;2.72;0.90;;;15.80;99.90;;;;;;5030753;28;20478;-65
2023/11/19 10:53:04;;;;;;;1.90;0.90;;;15.80;99.90;;;;;;5050531;28;20351;-65
2023/11/19 10:55:31;;;;;;;1.83;0.90;;;15.80;99.90;;;;;;5049433;28;20080;-65
2023/11/19 10:58:08;;;;;;;1.52;0.80;;;15.80;99.90;;;;;;5051011;28;20466;-65
2023/11/19 11:00:57;;;;;;;0.50;0.38;;;16.00;99.90;;;;;;5044953;28;20502;-64
2023/11/19 11:03:27;;;;;;;1.50;0.50;;;16.00;99.90;;;;;;5031045;28;20021;-65
2023/11/19 11:05:53;;;;;;;1.25;0.50;;;16.10;99.90;;;;;;5031017;28;20059;-66
2023/11/19 11:08:23;;;;;;;1.35;0.47;;;16.30;99.90;;;;;;5028415;28;20567;-66
2023/11/19 11:10:57;;;;;;;0.93;0.32;;;16.40;99.90;;;;;;5050397;28;20358;-65
2023/11/19 11:13:24;;;;;;;0.95;0.43;;;16.40;99.90;;;;;;5049147;28;20033;-65
2023/11/19 11:15:50;;;;;;;0.52;0.50;;;16.40;99.90;;;;;;5046258;28;20540;-65
2023/11/19 11:18:18;;;;;;;1.17;0.50;;;16.50;99.90;;;;;;5049576;28;20657;-65
2023/11/19 11:20:45;;;;;;;1.63;0.60;;;16.40;99.90;;;;;;5019887;28;20041;-64
2023/11/19 11:23:45;;;;;;;1.08;0.55;;;16.40;99.90;;;;;;5050002;28;20078;-65
2023/11/19 11:26:36;;;;;;;1.42;0.60;;;16.40;99.90;;;;;;5029049;28;20069;-64
2023/11/19 11:29:15;;;;;;;3.53;0.50;;;16.40;99.90;;;;;;5028959;28;20032;-64
2023/11/19 11:31:49;;;;;;;1.38;0.50;;;16.30;99.90;;;;;;5029950;28;20091;-62
2023/11/19 11:34:56;;;;;;;2.25;0.75;;;16.20;99.90;;;;;;5036367;28;20056;-62
2023/11/19 11:37:33;;;;;;;3.13;0.70;;;16.20;99.90;;;;;;4985113;28;20160;-63
2023/11/19 11:40:00;;;;;;;3.35;0.50;;;16.10;99.90;;;;;;5039298;28;20059;-63
2023/11/19 11:42:26;;;;;;;1.08;0.60;;;16.00;99.90;;;;;;5032143;28;20156;-64
2023/11/19 11:45:04;;;;;;;7.93;2.45;;;16.00;99.90;;;;;;5037795;28;20107;-64
2023/11/19 11:47:42;;;;;;;5.60;0.90;;;15.80;99.90;;;;;;5050605;28;20033;-63
2023/11/19 11:50:15;;;;;;;3.58;0.70;;;15.60;99.90;;;;;;5033414;28;20455;-64
2023/11/19 11:52:59;;;;;;;2.15;0.98;;;15.50;99.90;;;;;;5030968;28;20109;-63
2023/11/19 11:55:49;;;;;;;2.15;0.88;;;15.60;99.90;;;;;;5040895;28;20033;-63
2023/11/19 11:58:17;;;;;;;;;;;15.70;99.90;;;;;;5049013;28;20029;-64
2023/11/19 12:00:43;;;;;;;2.05;0.68;;;15.90;99.90;;;;;;5029568;28;20441;-66
2023/11/19 12:03:11;;;;;;;3.00;0.68;;;16.00;99.90;;;;;;5028947;28;20100;-65
2023/11/19 12:05:44;;;;;;;4.82;0.90;;;16.10;99.90;;;;;;5029644;28;20037;-66
2023/11/19 12:08:12;;;;;;;5.60;1.15;;;16.20;99.90;;;;;;5029235;28;20025;-64
2023/11/19 12:10:48;;;;;;;1.08;0.60;;;16.20;99.90;;;;;;5029858;28;20429;-63
2023/11/19 12:13:14;;;;;;;2.95;0.77;;;16.30;99.90;;;;;;5040653;28;20029;-64
2023/11/19 12:15:59;;;;;;;2.95;0.70;;;;;;;;;;5044429;28;20099;-65
2023/11/19 12:18:32;;;;;;;2.35;0.77;;;16.60;99.90;;;;;;5047919;28;20045;-63
2023/11/19 12:21:02;;;;;;;1.58;0.70;;;16.90;99.90;;;;;;5029285;28;20056;-63
2023/11/19 12:23:31;;;;;;;;;;;17.10;99.90;;;;;;5029819;28;20364;-63
2023/11/19 12:25:57;;;;;;;1.83;0.60;;;;;;;;;;5037792;28;20285;-64
2023/11/19 12:28:26;;;;;;;2.42;0.60;;;17.20;99.90;;;;;;5067259;28;20017;-62
2023/11/19 12:30:53;;;;;;;2.03;0.70;;;17.10;99.90;;;;;;5033270;28;20476;-61
2023/11/19 12:33:19;;;;;;;0.68;0.50;;;17.10;99.90;;;;;;5028792;28;20029;-66
2023/11/19 12:35:47;;;;;;;2.53;0.70;;;17.10;99.90;;;;;;5048199;28;20441;-67
2023/11/19 12:38:25;;;;;;;4.10;0.80;;;16.90;99.90;;;;;;5052046;28;20025;-65
2023/11/19 12:41:08;;;;;;;1.15;0.57;;;16.90;99.90;;;;;;5033219;28;20447;-66
2023/11/19 12:43:40;;;;;;;2.85;0.60;;;16.70;99.90;;;;;;5033374;28;20025;-66
2023/11/19 12:46:21;;;;;;;1.42;0.75;;;16.60;99.90;;;;;;5050868;28;20040;-67
2023/11/19 12:48:50;;;;;;;3.25;1.02;;;16.50;99.90;;;;;;5045707;28;20034;-66
2023/11/19 12:51:17;;;;;;;2.22;0.60;;;16.30;99.90;;;;;;5032463;28;20030;-64
2023/11/19 12:53:50;;;;;;;2.60;0.52;;;16.20;99.90;;;;;;5033260;28;20052;-65
2023/11/19 12:56:16;;;;;;;1.48;0.80;;;16.20;99.90;;;;;;5032457;28;20061;-63
2023/11/19 12:58:42;;;;;;;1.20;0.50;;;16.10;99.90;;;;;;5032734;28;20095;-66
2023/11/19 13:01:11;;;;;;;4.05;0.77;;;16.10;99.90;;;;;;5031553;28;20065;-66
2023/11/19 13:03:40;;;;;;;3.92;0.50;;;16.10;99.90;;;;;;5034277;28;20033;-63
2023/11/19 13:06:14;;;;;;;2.05;0.50;;;16.20;99.90;;;;;;5046524;28;20033;-64
2023/11/19 13:08:53;;;;;;;1.27;0.52;;;16.20;99.90;;;;;;5049776;28;20116;-64
2023/11/19 13:11:32;;;;;;;;;;;16.20;99.90;;;;;;5032713;28;20548;-64
2023/11/19 13:14:00;;;;;;;3.30;1.17;;;16.20;99.90;;;;;;5032985;28;19905;-66
2023/11/19 13:16:27;;;;;;;3.20;0.77;;;16.20;99.90;;;;;;5052086;28;20056;-65
2023/11/19 13:18:53;;;;;;;1.50;0.60;;;16.20;99.90;;;;;;5048239;28;20025;-65
2023/11/19 13:21:19;;;;;;;3.35;1.00;;;16.20;99.90;;;;;;5026627;28;20609;-64
2023/11/19 13:23:44;;;;;;;0.80;0.70;;;16.30;99.90;;;;;;5045009;28;20100;-65
2023/11/19 13:26:11;;;;;;;1.20;0.45;;;16.30;99.90;;;;;;5045580;28;20036;-64
2023/11/19 13:28:37;;;;;;;2.45;0.45;;;16.30;99.90;;;;;;5033242;28;20178;-64
2023/11/19 13:31:03;;;;;;;1.60;0.40;;;16.30;99.90;;;;;;5032903;28;20026;-64
2023/11/19 13:33:29;;;;;;;2.08;0.52;;;16.30;99.90;;;;;;5033824;28;20041;-64
2023/11/19 13:35:55;;;;;;;1.23;0.70;;;16.20;99.90;;;;;;5037288;28;20454;-64
2023/11/19 13:38:21;;;;;;;1.50;0.68;;;16.20;99.90;;;;;;5047078;28;20104;-64
2023/11/19 13:40:46;;;;;;;1.67;0.70;;;16.10;99.90;;;;;;5033272;28;20109;-64
2023/11/19 13:43:12;;;;;;;2.22;0.45;;;16.00;99.90;;;;;;5033016;28;20057;-65
2023/11/19 13:45:38;;;;;;;2.40;0.60;;;15.90;99.90;;;;;;5033272;28;20029;-64
2023/11/19 13:48:03;;;;;;;3.50;0.60;;;15.90;99.90;;;;;;5032081;28;20405;-64
2023/11/19 13:50:29;;;;;;;1.67;0.63;;;15.80;99.90;;;;;;5034434;28;20105;-64
2023/11/19 13:52:55;;;;;;;2.05;0.68;;;15.70;99.90;;;;;;5070573;28;20036;-64
2023/11/19 13:55:22;;;;;;;3.70;0.80;;;15.60;99.90;;;;;;5052502;28;20099;-64
2023/11/19 13:57:48;;;;;;;3.45;0.68;;;15.50;99.90;;;;;;5062603;28;20025;-63
2023/11/19 14:00:18;;;;;;;2.70;0.50;;;15.40;99.90;;;;;;5072130;28;20037;-65
2023/11/19 14:02:45;;;;;;;2.67;0.52;;;15.30;99.90;;;;;;5073294;28;20120;-64
2023/11/19 14:05:12;;;;;;;3.95;0.82;;;15.30;99.90;;;;;;5066501;28;20058;-65
2023/11/19 14:07:38;;;;;;;2.58;0.88;;;15.30;99.90;;;;;;5072921;28;20036;-65